Garfield, Iowa
Current Conditions -  °F | °C
As of 9:50 AM on Sunday 23 Nov 2014 (Local Time) from KTVK Reporting Station
Moderate Rain Moderate Rain  
Wind Chill: 50°   Ceiling: NA
Heat Index: 50°   Visibility: 10mi
Dew Point: 50°   Wind: 10mph
Humidity: 100%   Direction: 140°SE
Pressure: 29.52"   Gusts: NA
Location:  40.8017°N, 92.9289°W
Report Text: KTVK 231550Z AUTO 14009KT 10SM RA 10/10 A2952 RMK AO2 P0011
Loading
Personal Weather Stations






























Interactive Weather Map New forecast layout! Learn more

10-Day Weather Forecast

Advertisements
Track Severe Weather on mobile